Terminal Aerodrome Forecast
Issued by NWS

Home | Current Version | Previous Version | Text Only | Print | Product List | Glossary On
Versions: 1 2 3 4 5 6 7 8 9 10 11 12 13 14 15
000
FTUS46 KLOX 252016 AAA
TAFSBA
TAF AMD
KSBA 252016Z 2520/2618 26013G20KT P6SM FEW012 SCT050
     FM252100 26015KT P6SM SCT250 WS010/34035KT
     FM260400 29007KT P6SM SCT250 WS010/34035KT
     FM260800 VRB03KT P6SM SCT250=

USA.gov is the U.S. government's official web portal to all federal, state and local government web resources and services.